createdAt,value
2018-10-18T00:00:25.017Z,74.50
2018-10-18T00:02:53.828Z,74.26
2018-10-18T00:05:22.659Z,74.12
2018-10-18T00:07:51.456Z,74.13
2018-10-18T00:10:20.361Z,74.54
2018-10-18T00:12:49.139Z,74.56
2018-10-18T00:15:17.999Z,74.59
2018-10-18T00:17:47.834Z,74.71
2018-10-18T00:20:17.442Z,74.95
2018-10-18T00:22:46.753Z,75.11
2018-10-18T00:25:16.254Z,75.18
2018-10-18T00:27:45.144Z,75.06
2018-10-18T00:30:14.983Z,75.23
2018-10-18T00:32:44.579Z,75.79
2018-10-18T00:35:13.638Z,75.77
2018-10-18T00:37:42.514Z,75.55
2018-10-18T00:40:12.238Z,75.79
2018-10-18T00:42:41.666Z,75.69
2018-10-18T00:45:11.049Z,75.58
2018-10-18T00:47:39.829Z,75.53
2018-10-18T00:50:10.213Z,75.69
2018-10-18T00:52:39.284Z,75.49
2018-10-18T00:55:09.366Z,75.55
2018-10-18T00:57:38.513Z,75.42
2018-10-18T01:00:08.748Z,75.23
2018-10-18T01:02:37.708Z,75.36
2018-10-18T01:05:06.632Z,75.28
2018-10-18T01:07:35.638Z,75.38
2018-10-18T01:10:04.730Z,75.17
2018-10-18T01:12:33.572Z,75.17
2018-10-18T01:15:02.326Z,74.94
2018-10-18T01:17:31.053Z,74.87
2018-10-18T01:19:59.832Z,74.68
2018-10-18T01:22:28.615Z,73.98
2018-10-18T01:24:57.425Z,73.98
2018-10-18T01:27:26.250Z,74.10
2018-10-18T01:29:54.953Z,74.17
2018-10-18T01:32:23.967Z,74.50
2018-10-18T01:34:52.767Z,74.28
2018-10-18T01:37:21.564Z,74.43
2018-10-18T01:39:50.330Z,74.47
2018-10-18T01:42:19.342Z,74.63
2018-10-18T01:44:47.983Z,74.80
2018-10-18T01:47:16.750Z,75.33
2018-10-18T01:49:45.498Z,75.72
2018-10-18T01:52:14.209Z,75.62
2018-10-18T01:54:43.021Z,75.96
2018-10-18T01:57:11.791Z,76.04
2018-10-18T01:59:41.149Z,76.18
2018-10-18T02:02:10.109Z,75.77
2018-10-18T02:04:38.901Z,75.78
2018-10-18T02:07:07.986Z,75.58
2018-10-18T02:09:36.800Z,75.48
2018-10-18T02:12:06.303Z,75.81
2018-10-18T02:14:35.081Z,75.52
2018-10-18T02:17:04.006Z,75.85
2018-10-18T02:19:32.810Z,75.96
2018-10-18T02:22:01.787Z,75.89
2018-10-18T02:24:30.491Z,76.23
2018-10-18T02:26:59.378Z,76.40
2018-10-18T02:29:34.955Z,75.68
2018-10-18T02:32:03.778Z,75.81
2018-10-18T02:34:32.558Z,75.94
2018-10-18T02:37:01.326Z,75.84
2018-10-18T02:39:30.086Z,75.59
2018-10-18T02:41:58.965Z,76.41
2018-10-18T02:44:27.721Z,75.71
2018-10-18T02:46:56.490Z,76.11
2018-10-18T02:49:25.663Z,76.59
2018-10-18T02:51:54.454Z,76.73
2018-10-18T02:54:23.648Z,77.09
2018-10-18T02:56:52.404Z,77.05
2018-10-18T02:59:21.322Z,77.00
2018-10-18T03:01:50.122Z,77.46
2018-10-18T03:04:19.016Z,77.21
2018-10-18T03:06:47.934Z,77.57
2018-10-18T03:09:16.743Z,77.33
2018-10-18T03:11:45.567Z,76.96
2018-10-18T03:14:14.387Z,77.03
2018-10-18T03:16:43.185Z,76.52
2018-10-18T03:19:11.957Z,76.17
2018-10-18T03:21:40.778Z,75.94
2018-10-18T03:24:09.550Z,76.03
2018-10-18T03:26:38.340Z,75.06
2018-10-18T03:29:07.114Z,74.80
2018-10-18T03:31:35.958Z,74.55
2018-10-18T03:34:04.888Z,74.50
2018-10-18T03:36:33.762Z,73.42
2018-10-18T03:39:02.628Z,74.38
2018-10-18T03:41:31.375Z,74.26
2018-10-18T03:44:00.251Z,75.04
2018-10-18T03:46:28.975Z,74.39
2018-10-18T03:48:57.779Z,74.90
2018-10-18T03:51:26.601Z,74.56
2018-10-18T03:53:55.378Z,74.82
2018-10-18T03:56:24.107Z,75.62
2018-10-18T03:58:52.867Z,74.33
2018-10-18T04:01:21.691Z,74.63
2018-10-18T04:03:50.477Z,75.05
2018-10-18T04:06:19.300Z,74.79
2018-10-18T04:08:47.927Z,74.63
2018-10-18T04:11:16.726Z,74.77
2018-10-18T04:13:45.592Z,75.29
2018-10-18T04:16:14.402Z,75.41
2018-10-18T04:18:43.167Z,75.91
2018-10-18T04:21:11.982Z,76.01
2018-10-18T04:23:40.766Z,75.26
2018-10-18T04:26:09.631Z,76.06
2018-10-18T04:28:38.362Z,76.07
2018-10-18T04:31:07.135Z,76.17
2018-10-18T04:33:36.016Z,77.48
2018-10-18T04:36:04.935Z,77.21
2018-10-18T04:38:33.702Z,77.19
2018-10-18T04:41:02.674Z,78.37
2018-10-18T04:43:31.378Z,78.37
2018-10-18T04:46:00.206Z,78.14
2018-10-18T04:48:29.184Z,78.26
2018-10-18T04:50:57.933Z,77.16
2018-10-18T04:53:26.771Z,76.53
2018-10-18T04:55:55.614Z,75.94
2018-10-18T04:58:24.550Z,75.04
2018-10-18T05:00:53.402Z,74.64
2018-10-18T05:03:22.095Z,74.54
2018-10-18T05:05:54.747Z,74.67
2018-10-18T05:08:24.624Z,74.47
2018-10-18T05:10:53.767Z,74.70
2018-10-18T05:13:22.606Z,74.79
2018-10-18T05:15:51.658Z,75.14
2018-10-18T05:18:21.210Z,74.68
2018-10-18T05:20:50.134Z,74.57
2018-10-18T05:23:20.624Z,74.53
2018-10-18T05:25:50.363Z,74.89
2018-10-18T05:28:19.526Z,74.79
2018-10-18T05:30:48.558Z,75.51
2018-10-18T05:33:17.317Z,76.48
2018-10-18T05:35:46.125Z,75.69
2018-10-18T05:38:14.898Z,75.34
2018-10-18T05:40:43.849Z,75.89
2018-10-18T05:43:12.813Z,76.85
2018-10-18T05:45:41.494Z,76.29
2018-10-18T05:48:10.246Z,76.14
2018-10-18T05:50:39.080Z,76.95
2018-10-18T05:53:07.872Z,77.30
2018-10-18T05:55:36.550Z,77.17
2018-10-18T05:58:05.515Z,77.49
2018-10-18T06:00:34.456Z,77.00
2018-10-18T06:03:03.210Z,76.62
2018-10-18T06:05:32.006Z,77.00
2018-10-18T06:08:00.743Z,76.80
2018-10-18T06:10:40.569Z,76.49
2018-10-18T06:13:09.228Z,76.51
2018-10-18T06:15:44.685Z,75.61
2018-10-18T06:18:13.446Z,75.67
2018-10-18T06:20:42.260Z,74.62
2018-10-18T06:23:11.137Z,73.93
2018-10-18T06:25:40.088Z,73.60
2018-10-18T06:28:08.906Z,73.43
2018-10-18T06:30:37.631Z,72.97
2018-10-18T06:33:06.483Z,72.84
2018-10-18T06:35:35.194Z,73.12
2018-10-18T06:38:04.005Z,72.90
2018-10-18T06:40:32.759Z,73.51
2018-10-18T06:43:02.235Z,72.64
2018-10-18T06:45:31.083Z,73.62
2018-10-18T06:47:59.971Z,74.17
2018-10-18T06:50:29.743Z,73.89
2018-10-18T06:52:58.539Z,74.29
2018-10-18T06:55:27.255Z,75.11
2018-10-18T06:57:56.310Z,74.76
2018-10-18T07:00:25.575Z,75.51
2018-10-18T07:02:54.669Z,75.04
2018-10-18T07:05:23.371Z,74.88
2018-10-18T07:07:52.090Z,74.43
2018-10-18T07:10:20.951Z,73.81
2018-10-18T07:12:49.710Z,73.75
2018-10-18T07:15:18.453Z,73.60
2018-10-18T07:17:47.228Z,73.01
2018-10-18T07:20:16.281Z,72.46
2018-10-18T07:22:45.181Z,71.76
2018-10-18T07:25:15.327Z,71.78
2018-10-18T07:27:44.362Z,71.39
2018-10-18T07:30:14.511Z,70.99
2018-10-18T07:32:43.498Z,71.26
2018-10-18T07:35:13.471Z,71.29
2018-10-18T07:37:42.099Z,71.58
2018-10-18T07:40:13.513Z,71.69
2018-10-18T07:42:42.313Z,71.60
2018-10-18T07:45:12.567Z,71.84
2018-10-18T07:47:42.176Z,72.05
2018-10-18T07:50:11.330Z,72.34
2018-10-18T07:52:40.035Z,72.02
2018-10-18T07:55:09.649Z,71.45
2018-10-18T07:57:38.546Z,71.77
2018-10-18T08:00:09.738Z,71.65
2018-10-18T08:02:38.410Z,69.69
2018-10-18T08:05:07.679Z,69.20
2018-10-18T08:07:36.434Z,69.11
2018-10-18T08:10:07.066Z,68.85
2018-10-18T08:12:36.052Z,68.25
2018-10-18T08:15:05.734Z,67.69
2018-10-18T08:17:34.763Z,67.30
2018-10-18T08:20:03.652Z,67.08
2018-10-18T08:22:32.538Z,66.60
2018-10-18T08:25:01.293Z,67.59
2018-10-18T08:27:30.046Z,67.25
2018-10-18T08:29:58.853Z,67.64
2018-10-18T08:32:27.576Z,68.01
2018-10-18T08:34:56.442Z,67.84
2018-10-18T08:37:25.981Z,67.96
2018-10-18T08:39:55.447Z,67.39
2018-10-18T08:42:24.257Z,67.43
2018-10-18T08:44:53.235Z,67.68
2018-10-18T08:47:22.149Z,66.26
2018-10-18T08:49:50.961Z,66.12
2018-10-18T08:52:19.978Z,65.90
2018-10-18T08:54:48.838Z,65.84
2018-10-18T08:57:17.632Z,65.49
2018-10-18T08:59:46.330Z,65.61
2018-10-18T09:02:15.178Z,65.01
2018-10-18T09:04:44.044Z,64.65
2018-10-18T09:07:12.828Z,64.70
2018-10-18T09:09:41.898Z,64.45
2018-10-18T09:12:10.602Z,64.78
2018-10-18T09:14:39.448Z,64.70
2018-10-18T09:17:08.287Z,64.06
2018-10-18T09:19:37.035Z,62.76
2018-10-18T09:22:06.532Z,62.75
2018-10-18T09:24:35.447Z,63.49
2018-10-18T09:27:04.155Z,62.95
2018-10-18T09:29:32.974Z,62.51
2018-10-18T09:32:01.715Z,61.70
2018-10-18T09:34:30.410Z,62.11
2018-10-18T09:37:02.240Z,61.69
2018-10-18T09:39:30.979Z,61.93
2018-10-18T09:41:59.766Z,61.22
2018-10-18T09:44:28.897Z,61.62
2018-10-18T09:46:57.587Z,62.85
2018-10-18T09:49:26.573Z,62.99
2018-10-18T09:51:55.406Z,62.34
2018-10-18T09:54:24.423Z,62.21
2018-10-18T09:56:53.214Z,61.99
2018-10-18T09:59:22.040Z,61.75
2018-10-18T10:02:56.889Z,61.27
2018-10-18T10:05:25.736Z,61.48
2018-10-18T10:07:54.550Z,60.71
2018-10-18T10:10:23.258Z,60.44
2018-10-18T10:12:52.245Z,60.84
2018-10-18T10:15:21.003Z,60.70
2018-10-18T10:17:49.869Z,60.38
2018-10-18T10:20:18.615Z,59.65
2018-10-18T10:22:47.327Z,59.24
2018-10-18T10:25:16.261Z,59.22
2018-10-18T10:27:44.956Z,59.21
2018-10-18T10:30:13.815Z,58.57
2018-10-18T10:32:42.666Z,58.57
2018-10-18T10:35:11.475Z,58.73
2018-10-18T10:37:40.439Z,58.83
2018-10-18T10:40:10.313Z,57.83
2018-10-18T10:42:40.079Z,57.52
2018-10-18T10:45:09.948Z,57.12
2018-10-18T10:47:38.663Z,56.98
2018-10-18T10:50:08.063Z,58.23
2018-10-18T10:52:37.071Z,57.91
2018-10-18T10:55:06.684Z,57.63
2018-10-18T10:57:35.444Z,57.63
2018-10-18T11:00:04.478Z,57.43
2018-10-18T11:02:33.361Z,57.75
2018-10-18T11:05:02.097Z,57.45
2018-10-18T11:07:30.898Z,56.88
2018-10-18T11:10:06.096Z,57.33
2018-10-18T11:12:34.963Z,57.29
2018-10-18T11:15:03.733Z,56.09
2018-10-18T11:17:32.572Z,55.30
2018-10-18T11:20:01.541Z,54.49
2018-10-18T11:22:30.255Z,54.07
2018-10-18T11:24:58.999Z,54.29
2018-10-18T11:27:27.890Z,54.46
2018-10-18T11:29:56.983Z,53.53
2018-10-18T11:32:26.093Z,53.58
2018-10-18T11:34:54.894Z,52.06
2018-10-18T11:37:23.658Z,52.14
2018-10-18T11:40:04.231Z,51.55
2018-10-18T11:42:33.033Z,51.71
2018-10-18T11:45:01.995Z,50.82
2018-10-18T11:47:30.818Z,50.03
2018-10-18T11:49:59.635Z,48.85
2018-10-18T11:52:28.381Z,47.90
2018-10-18T11:54:57.151Z,48.09
2018-10-18T11:57:26.043Z,46.64
2018-10-18T11:59:54.838Z,45.81
2018-10-18T12:02:23.617Z,44.37
2018-10-18T12:04:52.398Z,46.27
2018-10-18T12:07:21.373Z,45.96
2018-10-18T12:09:50.090Z,44.83
2018-10-18T12:12:18.825Z,44.12
2018-10-18T12:14:47.619Z,43.29
2018-10-18T12:17:16.523Z,42.73
2018-10-18T12:19:45.210Z,42.10
2018-10-18T12:22:13.998Z,39.62
2018-10-18T12:24:48.224Z,40.78
2018-10-18T12:27:17.025Z,38.20
2018-10-18T12:29:45.898Z,37.20
2018-10-18T12:32:14.867Z,35.37
2018-10-18T12:34:43.618Z,35.60
2018-10-18T12:37:12.845Z,36.88
2018-10-18T12:39:41.671Z,36.97
2018-10-18T12:42:10.410Z,37.19
2018-10-18T12:44:40.781Z,36.60
2018-10-18T12:47:11.373Z,35.20
2018-10-18T12:49:46.294Z,34.62
2018-10-18T12:52:15.486Z,34.93
2018-10-18T12:54:44.306Z,34.55
2018-10-18T12:57:13.885Z,37.70
2018-10-18T12:59:42.902Z,37.28
2018-10-18T13:02:11.832Z,36.72
2018-10-18T13:04:40.587Z,35.20
2018-10-18T13:07:09.450Z,34.87
2018-10-18T13:09:38.424Z,33.97
2018-10-18T13:12:07.349Z,35.33
2018-10-18T13:14:36.115Z,33.61
2018-10-18T13:17:05.070Z,34.94
2018-10-18T13:19:33.894Z,36.63
2018-10-18T13:22:02.718Z,36.02
2018-10-18T13:24:31.483Z,34.52
2018-10-18T13:27:00.171Z,36.19
2018-10-18T13:29:28.926Z,36.42
2018-10-18T13:31:57.813Z,34.69
2018-10-18T13:34:26.502Z,33.84
2018-10-18T13:36:55.325Z,33.66
2018-10-18T13:39:24.094Z,33.57
2018-10-18T13:41:53.045Z,33.93
2018-10-18T13:44:21.778Z,33.43
2018-10-18T13:46:50.692Z,34.58
2018-10-18T13:49:19.502Z,34.83
2018-10-18T13:51:48.312Z,35.21
2018-10-18T13:54:17.185Z,35.45
2018-10-18T13:56:45.906Z,34.50
2018-10-18T13:59:25.862Z,35.23
2018-10-18T14:01:54.490Z,35.75
2018-10-18T14:04:23.339Z,36.89
2018-10-18T14:06:52.066Z,36.54
2018-10-18T14:09:20.862Z,36.11
2018-10-18T14:11:49.669Z,37.18
2018-10-18T14:14:18.423Z,39.07
2018-10-18T14:16:47.219Z,40.00
2018-10-18T14:19:15.906Z,41.47
2018-10-18T14:21:44.786Z,42.44
2018-10-18T14:24:13.626Z,43.38
2018-10-18T14:26:42.606Z,43.64
2018-10-18T14:29:11.769Z,43.67
2018-10-18T14:31:40.712Z,43.89
2018-10-18T14:34:10.032Z,43.78
2018-10-18T14:36:38.788Z,43.88
2018-10-18T14:41:58.382Z,44.93
2018-10-18T14:44:27.231Z,44.76
2018-10-18T14:46:55.932Z,45.47
2018-10-18T14:49:24.965Z,45.62
2018-10-18T14:51:53.685Z,46.24
2018-10-18T14:54:22.884Z,46.69
2018-10-18T14:56:51.766Z,47.15
2018-10-18T14:59:20.567Z,46.92
2018-10-18T15:01:49.427Z,47.50
2018-10-18T15:04:18.233Z,47.31
2018-10-18T15:06:47.161Z,47.72
2018-10-18T15:09:16.017Z,48.43
2018-10-18T15:11:44.912Z,48.72
2018-10-18T15:14:13.727Z,47.86
2018-10-18T15:16:42.650Z,48.54
2018-10-18T15:19:11.367Z,48.43
2018-10-18T15:21:40.123Z,48.53
2018-10-18T15:24:08.888Z,49.20
2018-10-18T15:26:37.800Z,49.32
2018-10-18T15:29:06.812Z,49.01
2018-10-18T15:31:35.806Z,49.35
2018-10-18T15:34:04.779Z,49.18
2018-10-18T15:36:33.671Z,49.50
2018-10-18T15:39:02.673Z,50.04
2018-10-18T15:41:31.339Z,49.76
2018-10-18T15:44:00.154Z,50.06
2018-10-18T15:46:28.923Z,49.94
2018-10-18T15:48:57.690Z,50.32
2018-10-18T15:51:26.508Z,50.16
2018-10-18T15:53:55.236Z,50.28
2018-10-18T15:56:24.057Z,50.78
2018-10-18T15:58:53.081Z,50.78
2018-10-18T16:01:21.917Z,50.91
2018-10-18T16:03:51.049Z,51.64
2018-10-18T16:06:20.031Z,51.62
2018-10-18T16:08:48.868Z,51.94
2018-10-18T16:11:17.628Z,52.41
2018-10-18T16:13:46.410Z,52.64
2018-10-18T16:16:15.651Z,53.21
2018-10-18T16:18:44.443Z,53.43
2018-10-18T16:21:13.307Z,53.59
2018-10-18T16:23:42.057Z,54.21
2018-10-18T16:26:11.080Z,54.42
2018-10-18T16:28:39.772Z,54.63
2018-10-18T16:31:08.582Z,54.50
2018-10-18T16:33:37.354Z,54.59
2018-10-18T16:36:06.315Z,54.79
2018-10-18T16:38:35.697Z,55.30
2018-10-18T16:41:04.735Z,55.21
2018-10-18T16:43:33.483Z,55.37
2018-10-18T16:46:02.301Z,55.31
2018-10-18T16:48:31.174Z,55.72
2018-10-18T16:50:59.919Z,55.96
2018-10-18T16:53:28.598Z,56.21
2018-10-18T16:55:57.643Z,56.71
2018-10-18T16:58:26.463Z,56.26
2018-10-18T17:00:55.334Z,56.64
2018-10-18T17:03:24.003Z,56.98
2018-10-18T17:05:52.809Z,57.51
2018-10-18T17:08:21.958Z,57.48
2018-10-18T17:10:50.623Z,57.49
2018-10-18T17:13:19.910Z,57.67
2018-10-18T17:15:48.781Z,57.66
2018-10-18T17:18:17.579Z,58.34
2018-10-18T17:20:46.554Z,57.83
2018-10-18T17:23:15.216Z,58.27
2018-10-18T17:25:44.078Z,58.26
2018-10-18T17:28:12.830Z,58.52
2018-10-18T17:30:41.643Z,58.58
2018-10-18T17:33:10.419Z,58.74
2018-10-18T17:35:39.543Z,58.93
2018-10-18T17:38:08.392Z,58.83
2018-10-18T17:40:37.294Z,59.25
2018-10-18T17:43:06.099Z,59.50
2018-10-18T17:45:34.797Z,59.31
2018-10-18T17:48:03.657Z,59.42
2018-10-18T17:50:32.385Z,59.54
2018-10-18T17:53:01.371Z,59.66
2018-10-18T17:55:30.595Z,59.49
2018-10-18T17:57:59.457Z,59.80
2018-10-18T18:00:28.376Z,59.85
2018-10-18T18:02:57.178Z,60.26
2018-10-18T18:05:25.974Z,60.00
2018-10-18T18:07:55.148Z,60.62
2018-10-18T18:10:24.068Z,60.69
2018-10-18T18:12:52.988Z,60.88
2018-10-18T18:15:21.817Z,60.81
2018-10-18T18:17:50.502Z,61.15
2018-10-18T18:20:19.331Z,61.35
2018-10-18T18:22:54.663Z,61.69
2018-10-18T18:25:23.363Z,61.82
2018-10-18T18:27:52.338Z,61.58
2018-10-18T18:30:21.310Z,61.74
2018-10-18T18:32:50.019Z,62.00
2018-10-18T18:35:18.883Z,62.30
2018-10-18T18:37:47.732Z,62.98
2018-10-18T18:40:16.669Z,62.82
2018-10-18T18:42:45.478Z,63.09
2018-10-18T18:45:24.065Z,62.89
2018-10-18T18:47:53.030Z,63.12
2018-10-18T18:50:22.065Z,63.24
2018-10-18T18:52:50.837Z,63.63
2018-10-18T18:55:19.666Z,63.99
2018-10-18T18:57:48.576Z,63.72
2018-10-18T19:00:17.296Z,64.28
2018-10-18T19:02:45.987Z,63.83
2018-10-18T19:05:14.899Z,64.35
2018-10-18T19:07:43.691Z,64.64
2018-10-18T19:10:12.534Z,64.63
2018-10-18T19:12:41.294Z,65.10
2018-10-18T19:15:10.479Z,64.99
2018-10-18T19:17:40.164Z,65.37
2018-10-18T19:20:09.286Z,65.79
2018-10-18T19:22:38.253Z,65.39
2018-10-18T19:25:07.922Z,65.60
2018-10-18T19:27:37.085Z,66.04
2018-10-18T19:30:07.022Z,66.41
2018-10-18T19:32:35.810Z,66.15
2018-10-18T19:35:04.823Z,66.10
2018-10-18T19:37:33.535Z,66.14
2018-10-18T19:40:02.260Z,66.91
2018-10-18T19:42:31.054Z,67.08
2018-10-18T19:44:59.870Z,66.92
2018-10-18T19:47:28.686Z,67.07
2018-10-18T19:49:57.582Z,67.58
2018-10-18T19:52:26.533Z,67.79
2018-10-18T19:54:55.162Z,67.72
2018-10-18T19:57:23.942Z,67.97
2018-10-18T19:59:52.963Z,68.17
2018-10-18T20:02:21.995Z,68.15
2018-10-18T20:04:50.798Z,68.20
2018-10-18T20:07:19.611Z,68.71
2018-10-18T20:09:48.492Z,68.63
2018-10-18T20:12:17.279Z,68.89
2018-10-18T20:14:46.122Z,68.85
2018-10-18T20:17:14.893Z,69.30
2018-10-18T20:19:43.741Z,69.29
2018-10-18T20:22:13.578Z,69.65
2018-10-18T20:24:42.648Z,69.85
2018-10-18T20:27:11.870Z,69.69
2018-10-18T20:29:40.850Z,69.81
2018-10-18T20:32:09.708Z,69.63
2018-10-18T20:34:38.678Z,70.14
2018-10-18T20:37:07.598Z,70.51
2018-10-18T20:39:36.431Z,70.52
2018-10-18T20:42:05.190Z,70.95
2018-10-18T20:44:34.051Z,70.57
2018-10-18T20:47:03.438Z,70.92
2018-10-18T20:49:32.195Z,70.96
2018-10-18T20:52:00.952Z,71.68
2018-10-18T20:54:29.799Z,71.08
2018-10-18T20:56:58.614Z,71.44
2018-10-18T20:59:27.550Z,71.41
2018-10-18T21:01:56.546Z,71.74
2018-10-18T21:04:25.310Z,71.83
2018-10-18T21:06:54.327Z,71.51
2018-10-18T21:09:23.602Z,72.04
2018-10-18T21:11:52.377Z,71.76
2018-10-18T21:14:21.198Z,71.54
2018-10-18T21:16:49.906Z,72.34
2018-10-18T21:19:18.620Z,72.66
2018-10-18T21:21:47.549Z,72.55
2018-10-18T21:24:18.702Z,72.74
2018-10-18T21:26:47.606Z,72.71
2018-10-18T21:29:16.335Z,73.14
2018-10-18T21:31:45.118Z,73.36
2018-10-18T21:34:13.982Z,72.98
2018-10-18T21:36:42.735Z,73.35
2018-10-18T21:39:11.586Z,73.60
2018-10-18T21:41:40.402Z,73.55
2018-10-18T21:44:09.223Z,73.71
2018-10-18T21:46:38.021Z,73.68
2018-10-18T21:49:06.826Z,73.94
2018-10-18T21:51:35.707Z,73.98
2018-10-18T21:54:05.094Z,74.07
2018-10-18T21:56:33.950Z,74.50
2018-10-18T21:59:02.834Z,74.38
2018-10-18T22:01:31.671Z,74.07
2018-10-18T22:04:00.379Z,74.24
2018-10-18T22:06:29.251Z,74.32
2018-10-18T22:08:57.972Z,74.59
2018-10-18T22:11:26.874Z,74.18
2018-10-18T22:13:55.665Z,74.10
2018-10-18T22:16:24.578Z,74.48
2018-10-18T22:18:53.341Z,74.74
2018-10-18T22:21:22.146Z,74.53
2018-10-18T22:23:50.959Z,74.81
2018-10-18T22:26:19.729Z,74.87
2018-10-18T22:28:48.543Z,75.24
2018-10-18T22:31:17.407Z,75.19
2018-10-18T22:33:46.210Z,75.50
2018-10-18T22:36:15.036Z,75.89
2018-10-18T22:38:43.795Z,75.98
2018-10-18T22:41:12.675Z,76.26
2018-10-18T22:43:41.490Z,76.36
2018-10-18T22:46:10.369Z,76.05
2018-10-18T22:48:39.411Z,75.94
2018-10-18T22:51:08.283Z,76.22
2018-10-18T22:53:37.160Z,76.06
2018-10-18T22:56:05.930Z,76.57
2018-10-18T22:58:34.681Z,76.68
2018-10-18T23:01:03.545Z,76.46
2018-10-18T23:03:32.354Z,76.58
2018-10-18T23:06:01.213Z,76.62
2018-10-18T23:08:29.982Z,77.26
2018-10-18T23:10:58.899Z,77.32
2018-10-18T23:13:27.628Z,76.87
2018-10-18T23:15:56.415Z,76.71
2018-10-18T23:18:25.249Z,77.02
2018-10-18T23:20:54.051Z,76.98
2018-10-18T23:23:22.774Z,77.21
2018-10-18T23:25:51.566Z,76.85
2018-10-18T23:28:20.343Z,77.43
2018-10-18T23:30:49.164Z,77.20
2018-10-18T23:33:17.923Z,76.98
2018-10-18T23:35:46.678Z,77.22
2018-10-18T23:38:15.416Z,77.30
2018-10-18T23:40:44.220Z,77.66
2018-10-18T23:43:13.131Z,78.04
2018-10-18T23:45:41.875Z,77.58
2018-10-18T23:48:10.713Z,77.44
2018-10-18T23:50:39.474Z,77.20
2018-10-18T23:53:08.411Z,77.63
2018-10-18T23:55:37.207Z,77.45
2018-10-18T23:58:06.484Z,78.06
